sensor_id;sensor_type;location;lat;lon;timestamp;temperature;humidity
40676;DHT22;26359;48.750;9.314;2024-03-25T00:00:12;5.10;99.90
40676;DHT22;26359;48.750;9.314;2024-03-25T00:02:39;5.10;99.90
40676;DHT22;26359;48.750;9.314;2024-03-25T00:05:08;5.00;99.90
40676;DHT22;26359;48.750;9.314;2024-03-25T00:07:37;5.10;99.90
40676;DHT22;26359;48.750;9.314;2024-03-25T00:10:04;5.10;99.90
40676;DHT22;26359;48.750;9.314;2024-03-25T00:12:31;5.10;99.90
40676;DHT22;26359;48.750;9.314;2024-03-25T00:14:57;5.10;99.90
40676;DHT22;26359;48.750;9.314;2024-03-25T00:17:25;5.10;99.90
40676;DHT22;26359;48.750;9.314;2024-03-25T00:19:51;5.10;99.90
40676;DHT22;26359;48.750;9.314;2024-03-25T00:22:18;5.10;99.90
40676;DHT22;26359;48.750;9.314;2024-03-25T00:24:45;5.10;99.90
40676;DHT22;26359;48.750;9.314;2024-03-25T00:27:10;5.10;99.90
40676;DHT22;26359;48.750;9.314;2024-03-25T00:29:36;5.10;99.90
40676;DHT22;26359;48.750;9.314;2024-03-25T00:32:01;5.10;99.90
40676;DHT22;26359;48.750;9.314;2024-03-25T00:34:27;5.10;99.90
40676;DHT22;26359;48.750;9.314;2024-03-25T00:36:52;5.10;99.90
40676;DHT22;26359;48.750;9.314;2024-03-25T00:39:18;5.20;99.90
40676;DHT22;26359;48.750;9.314;2024-03-25T00:41:44;5.10;99.90
40676;DHT22;26359;48.750;9.314;2024-03-25T00:44:10;5.10;99.90
40676;DHT22;26359;48.750;9.314;2024-03-25T00:46:35;5.10;99.90
40676;DHT22;26359;48.750;9.314;2024-03-25T00:49:01;5.10;99.90
40676;DHT22;26359;48.750;9.314;2024-03-25T00:51:26;5.10;99.90
40676;DHT22;26359;48.750;9.314;2024-03-25T00:53:52;5.10;99.90
40676;DHT22;26359;48.750;9.314;2024-03-25T00:56:17;5.10;99.90
40676;DHT22;26359;48.750;9.314;2024-03-25T00:58:43;5.10;99.90
40676;DHT22;26359;48.750;9.314;2024-03-25T01:01:10;5.10;99.90
40676;DHT22;26359;48.750;9.314;2024-03-25T01:03:37;5.10;99.90
40676;DHT22;26359;48.750;9.314;2024-03-25T01:06:03;5.20;99.90
40676;DHT22;26359;48.750;9.314;2024-03-25T01:08:29;5.10;99.90
40676;DHT22;26359;48.750;9.314;2024-03-25T01:10:55;5.10;99.90
40676;DHT22;26359;48.750;9.314;2024-03-25T01:13:21;5.10;99.90
40676;DHT22;26359;48.750;9.314;2024-03-25T01:15:46;5.10;99.90
40676;DHT22;26359;48.750;9.314;2024-03-25T01:18:12;5.10;99.90
40676;DHT22;26359;48.750;9.314;2024-03-25T01:20:38;5.10;99.90
40676;DHT22;26359;48.750;9.314;2024-03-25T01:23:04;5.10;99.90
40676;DHT22;26359;48.750;9.314;2024-03-25T01:25:30;5.10;99.90
40676;DHT22;26359;48.750;9.314;2024-03-25T01:27:56;5.10;99.90
40676;DHT22;26359;48.750;9.314;2024-03-25T01:30:22;5.10;99.90
40676;DHT22;26359;48.750;9.314;2024-03-25T01:32:47;5.10;99.90
40676;DHT22;26359;48.750;9.314;2024-03-25T01:35:14;5.10;99.90
40676;DHT22;26359;48.750;9.314;2024-03-25T01:37:41;5.10;99.90
40676;DHT22;26359;48.750;9.314;2024-03-25T01:40:07;5.10;99.90
40676;DHT22;26359;48.750;9.314;2024-03-25T01:42:32;5.10;99.90
40676;DHT22;26359;48.750;9.314;2024-03-25T01:44:58;5.10;99.90
40676;DHT22;26359;48.750;9.314;2024-03-25T01:47:24;5.10;99.90
40676;DHT22;26359;48.750;9.314;2024-03-25T01:49:50;5.00;99.90
40676;DHT22;26359;48.750;9.314;2024-03-25T01:52:19;5.10;99.90
40676;DHT22;26359;48.750;9.314;2024-03-25T01:54:46;5.10;99.90
40676;DHT22;26359;48.750;9.314;2024-03-25T01:57:12;5.10;99.90
40676;DHT22;26359;48.750;9.314;2024-03-25T01:59:38;5.10;99.90
40676;DHT22;26359;48.750;9.314;2024-03-25T02:02:04;5.10;99.90
40676;DHT22;26359;48.750;9.314;2024-03-25T02:04:31;5.00;99.90
40676;DHT22;26359;48.750;9.314;2024-03-25T02:06:56;5.00;99.90
40676;DHT22;26359;48.750;9.314;2024-03-25T02:09:23;5.00;99.90
40676;DHT22;26359;48.750;9.314;2024-03-25T02:11:50;5.00;99.90
40676;DHT22;26359;48.750;9.314;2024-03-25T02:14:16;5.00;99.90
40676;DHT22;26359;48.750;9.314;2024-03-25T02:16:42;5.00;99.90
40676;DHT22;26359;48.750;9.314;2024-03-25T02:19:08;5.00;99.90
40676;DHT22;26359;48.750;9.314;2024-03-25T02:21:34;5.00;99.90
40676;DHT22;26359;48.750;9.314;2024-03-25T02:24:00;5.00;99.90
40676;DHT22;26359;48.750;9.314;2024-03-25T02:26:30;5.10;99.90
40676;DHT22;26359;48.750;9.314;2024-03-25T02:28:55;5.10;99.90
40676;DHT22;26359;48.750;9.314;2024-03-25T02:31:21;5.10;99.90
40676;DHT22;26359;48.750;9.314;2024-03-25T02:33:47;5.00;99.90
40676;DHT22;26359;48.750;9.314;2024-03-25T02:36:12;5.00;99.90
40676;DHT22;26359;48.750;9.314;2024-03-25T02:38:38;5.00;99.90
40676;DHT22;26359;48.750;9.314;2024-03-25T02:41:03;5.00;99.90
40676;DHT22;26359;48.750;9.314;2024-03-25T02:43:29;5.00;99.90
40676;DHT22;26359;48.750;9.314;2024-03-25T02:45:55;5.10;99.90
40676;DHT22;26359;48.750;9.314;2024-03-25T02:48:21;5.00;99.90
40676;DHT22;26359;48.750;9.314;2024-03-25T02:50:46;5.10;99.90
40676;DHT22;26359;48.750;9.314;2024-03-25T02:53:12;5.10;99.90
40676;DHT22;26359;48.750;9.314;2024-03-25T02:55:37;5.10;99.90
40676;DHT22;26359;48.750;9.314;2024-03-25T02:58:03;5.10;99.90
40676;DHT22;26359;48.750;9.314;2024-03-25T03:00:28;5.10;99.90
40676;DHT22;26359;48.750;9.314;2024-03-25T03:02:54;5.10;99.90
40676;DHT22;26359;48.750;9.314;2024-03-25T03:05:19;5.10;99.90
40676;DHT22;26359;48.750;9.314;2024-03-25T03:07:45;5.10;99.90
40676;DHT22;26359;48.750;9.314;2024-03-25T03:10:10;5.10;99.90
40676;DHT22;26359;48.750;9.314;2024-03-25T03:12:36;5.10;99.90
40676;DHT22;26359;48.750;9.314;2024-03-25T03:15:02;5.10;99.90
40676;DHT22;26359;48.750;9.314;2024-03-25T03:17:30;5.20;99.90
40676;DHT22;26359;48.750;9.314;2024-03-25T03:19:55;5.20;99.90
40676;DHT22;26359;48.750;9.314;2024-03-25T03:22:21;5.20;99.90
40676;DHT22;26359;48.750;9.314;2024-03-25T03:24:46;5.20;99.90
40676;DHT22;26359;48.750;9.314;2024-03-25T03:27:12;5.20;99.90
40676;DHT22;26359;48.750;9.314;2024-03-25T03:29:38;5.20;99.90
40676;DHT22;26359;48.750;9.314;2024-03-25T03:32:04;5.10;99.90
40676;DHT22;26359;48.750;9.314;2024-03-25T03:34:29;5.10;99.90
40676;DHT22;26359;48.750;9.314;2024-03-25T03:36:55;5.20;99.90
40676;DHT22;26359;48.750;9.314;2024-03-25T03:39:20;5.10;99.90
40676;DHT22;26359;48.750;9.314;2024-03-25T03:41:46;5.20;99.90
40676;DHT22;26359;48.750;9.314;2024-03-25T03:44:11;5.10;99.90
40676;DHT22;26359;48.750;9.314;2024-03-25T03:46:39;5.10;99.90
40676;DHT22;26359;48.750;9.314;2024-03-25T03:49:05;5.10;99.90
40676;DHT22;26359;48.750;9.314;2024-03-25T03:51:31;5.00;99.90
40676;DHT22;26359;48.750;9.314;2024-03-25T03:53:57;5.00;99.90
40676;DHT22;26359;48.750;9.314;2024-03-25T03:56:22;5.00;99.90
40676;DHT22;26359;48.750;9.314;2024-03-25T03:58:48;4.80;99.90
40676;DHT22;26359;48.750;9.314;2024-03-25T04:01:17;4.90;99.90
40676;DHT22;26359;48.750;9.314;2024-03-25T04:03:43;4.80;99.90
40676;DHT22;26359;48.750;9.314;2024-03-25T04:06:12;4.70;99.90
40676;DHT22;26359;48.750;9.314;2024-03-25T04:08:39;4.80;99.90
40676;DHT22;26359;48.750;9.314;2024-03-25T04:11:06;4.70;99.90
40676;DHT22;26359;48.750;9.314;2024-03-25T04:13:32;4.80;99.90
40676;DHT22;26359;48.750;9.314;2024-03-25T04:16:04;4.80;99.90
40676;DHT22;26359;48.750;9.314;2024-03-25T04:18:31;4.80;99.90
40676;DHT22;26359;48.750;9.314;2024-03-25T04:20:57;4.80;99.90
40676;DHT22;26359;48.750;9.314;2024-03-25T04:23:26;4.80;99.90
40676;DHT22;26359;48.750;9.314;2024-03-25T04:25:51;4.80;99.90
40676;DHT22;26359;48.750;9.314;2024-03-25T04:28:17;4.80;99.90
40676;DHT22;26359;48.750;9.314;2024-03-25T04:30:43;4.80;99.90
40676;DHT22;26359;48.750;9.314;2024-03-25T04:33:08;4.80;99.90
40676;DHT22;26359;48.750;9.314;2024-03-25T04:35:34;4.80;99.90
40676;DHT22;26359;48.750;9.314;2024-03-25T04:38:00;4.80;99.90
40676;DHT22;26359;48.750;9.314;2024-03-25T04:40:25;4.80;99.90
40676;DHT22;26359;48.750;9.314;2024-03-25T04:42:51;4.80;99.90
40676;DHT22;26359;48.750;9.314;2024-03-25T04:45:16;4.80;99.90
40676;DHT22;26359;48.750;9.314;2024-03-25T04:47:42;4.80;99.90
40676;DHT22;26359;48.750;9.314;2024-03-25T04:50:08;4.70;99.90
40676;DHT22;26359;48.750;9.314;2024-03-25T04:52:34;4.80;99.90
40676;DHT22;26359;48.750;9.314;2024-03-25T04:54:59;4.80;99.90
40676;DHT22;26359;48.750;9.314;2024-03-25T04:57:25;4.80;99.90
40676;DHT22;26359;48.750;9.314;2024-03-25T04:59:50;4.90;99.90
40676;DHT22;26359;48.750;9.314;2024-03-25T05:02:16;4.80;99.90
40676;DHT22;26359;48.750;9.314;2024-03-25T05:04:41;4.80;99.90
40676;DHT22;26359;48.750;9.314;2024-03-25T05:07:07;4.80;99.90
40676;DHT22;26359;48.750;9.314;2024-03-25T05:09:32;4.80;99.90
40676;DHT22;26359;48.750;9.314;2024-03-25T05:11:58;4.80;99.90
40676;DHT22;26359;48.750;9.314;2024-03-25T05:14:24;4.80;99.90
40676;DHT22;26359;48.750;9.314;2024-03-25T05:16:49;4.80;99.90
40676;DHT22;26359;48.750;9.314;2024-03-25T05:19:17;4.80;99.90
40676;DHT22;26359;48.750;9.314;2024-03-25T05:21:42;4.70;99.90
40676;DHT22;26359;48.750;9.314;2024-03-25T05:24:08;4.60;99.90
40676;DHT22;26359;48.750;9.314;2024-03-25T05:26:33;4.70;99.90
40676;DHT22;26359;48.750;9.314;2024-03-25T05:28:59;4.80;99.90
40676;DHT22;26359;48.750;9.314;2024-03-25T05:31:24;4.70;99.90
40676;DHT22;26359;48.750;9.314;2024-03-25T05:33:51;4.70;99.90
40676;DHT22;26359;48.750;9.314;2024-03-25T05:36:16;4.60;99.90
40676;DHT22;26359;48.750;9.314;2024-03-25T05:38:42;4.60;99.90
40676;DHT22;26359;48.750;9.314;2024-03-25T05:41:08;4.70;99.90
40676;DHT22;26359;48.750;9.314;2024-03-25T05:43:34;4.70;99.90
40676;DHT22;26359;48.750;9.314;2024-03-25T05:46:00;4.70;99.90
40676;DHT22;26359;48.750;9.314;2024-03-25T05:48:26;4.70;99.90
40676;DHT22;26359;48.750;9.314;2024-03-25T05:51:05;4.70;99.90
40676;DHT22;26359;48.750;9.314;2024-03-25T05:53:43;4.80;99.90
40676;DHT22;26359;48.750;9.314;2024-03-25T05:56:13;4.80;99.90
40676;DHT22;26359;48.750;9.314;2024-03-25T05:59:00;4.80;99.90
40676;DHT22;26359;48.750;9.314;2024-03-25T06:01:49;4.90;99.90
40676;DHT22;26359;48.750;9.314;2024-03-25T06:04:30;4.90;99.90
40676;DHT22;26359;48.750;9.314;2024-03-25T06:07:18;4.80;99.90
40676;DHT22;26359;48.750;9.314;2024-03-25T06:09:44;4.70;99.90
40676;DHT22;26359;48.750;9.314;2024-03-25T06:12:10;4.70;99.90
40676;DHT22;26359;48.750;9.314;2024-03-25T06:15:06;4.70;99.90
40676;DHT22;26359;48.750;9.314;2024-03-25T06:22:03;4.80;99.90
40676;DHT22;26359;48.750;9.314;2024-03-25T06:31:52;5.20;99.90
40676;DHT22;26359;48.750;9.314;2024-03-25T06:38:24;5.40;99.90
40676;DHT22;26359;48.750;9.314;2024-03-25T06:41:26;5.40;99.90
40676;DHT22;26359;48.750;9.314;2024-03-25T06:43:52;5.50;99.90
40676;DHT22;26359;48.750;9.314;2024-03-25T06:46:19;5.70;99.90
40676;DHT22;26359;48.750;9.314;2024-03-25T06:49:05;5.80;99.90
40676;DHT22;26359;48.750;9.314;2024-03-25T06:51:30;5.90;99.90
40676;DHT22;26359;48.750;9.314;2024-03-25T06:53:59;6.00;99.90
40676;DHT22;26359;48.750;9.314;2024-03-25T06:56:25;6.10;99.90
40676;DHT22;26359;48.750;9.314;2024-03-25T06:58:50;6.00;99.90
40676;DHT22;26359;48.750;9.314;2024-03-25T07:01:17;5.90;99.90
40676;DHT22;26359;48.750;9.314;2024-03-25T07:03:42;5.90;99.90
40676;DHT22;26359;48.750;9.314;2024-03-25T07:06:08;5.80;99.90
40676;DHT22;26359;48.750;9.314;2024-03-25T07:08:34;5.70;99.90
40676;DHT22;26359;48.750;9.314;2024-03-25T07:10:59;5.80;99.90
40676;DHT22;26359;48.750;9.314;2024-03-25T07:13:25;5.70;99.90
40676;DHT22;26359;48.750;9.314;2024-03-25T07:15:50;5.70;99.90
40676;DHT22;26359;48.750;9.314;2024-03-25T07:18:16;5.70;99.90
40676;DHT22;26359;48.750;9.314;2024-03-25T07:20:43;5.60;99.90
40676;DHT22;26359;48.750;9.314;2024-03-25T07:23:09;5.60;99.90
40676;DHT22;26359;48.750;9.314;2024-03-25T07:25:34;5.70;99.90
40676;DHT22;26359;48.750;9.314;2024-03-25T07:28:01;5.70;99.90
40676;DHT22;26359;48.750;9.314;2024-03-25T07:30:27;5.80;99.90
40676;DHT22;26359;48.750;9.314;2024-03-25T07:32:56;5.80;99.90
40676;DHT22;26359;48.750;9.314;2024-03-25T07:35:22;5.80;99.90
40676;DHT22;26359;48.750;9.314;2024-03-25T07:37:47;5.80;99.90
40676;DHT22;26359;48.750;9.314;2024-03-25T07:40:20;5.80;99.90
40676;DHT22;26359;48.750;9.314;2024-03-25T07:42:45;5.80;99.90
40676;DHT22;26359;48.750;9.314;2024-03-25T07:45:11;5.90;99.90
40676;DHT22;26359;48.750;9.314;2024-03-25T07:47:37;6.00;99.90
40676;DHT22;26359;48.750;9.314;2024-03-25T07:50:03;6.20;99.90
40676;DHT22;26359;48.750;9.314;2024-03-25T07:52:28;6.20;99.90
40676;DHT22;26359;48.750;9.314;2024-03-25T07:54:55;6.30;99.90
40676;DHT22;26359;48.750;9.314;2024-03-25T07:57:21;6.30;99.90
40676;DHT22;26359;48.750;9.314;2024-03-25T07:59:47;6.30;99.90
40676;DHT22;26359;48.750;9.314;2024-03-25T08:02:13;6.30;99.90
40676;DHT22;26359;48.750;9.314;2024-03-25T08:04:38;6.30;99.90
40676;DHT22;26359;48.750;9.314;2024-03-25T08:07:04;6.40;99.90
40676;DHT22;26359;48.750;9.314;2024-03-25T08:09:30;6.50;99.90
40676;DHT22;26359;48.750;9.314;2024-03-25T08:11:55;6.50;99.90
40676;DHT22;26359;48.750;9.314;2024-03-25T08:14:21;6.60;99.90
40676;DHT22;26359;48.750;9.314;2024-03-25T08:16:47;6.60;99.90
40676;DHT22;26359;48.750;9.314;2024-03-25T08:19:13;6.70;99.90
40676;DHT22;26359;48.750;9.314;2024-03-25T08:21:38;6.80;99.90
40676;DHT22;26359;48.750;9.314;2024-03-25T08:24:04;6.90;99.90
40676;DHT22;26359;48.750;9.314;2024-03-25T08:26:29;6.90;99.90
40676;DHT22;26359;48.750;9.314;2024-03-25T08:28:55;6.90;99.90
40676;DHT22;26359;48.750;9.314;2024-03-25T08:31:21;7.00;99.90
40676;DHT22;26359;48.750;9.314;2024-03-25T08:33:46;7.10;99.90
40676;DHT22;26359;48.750;9.314;2024-03-25T08:36:12;7.20;99.90
40676;DHT22;26359;48.750;9.314;2024-03-25T08:38:37;7.50;99.90
40676;DHT22;26359;48.750;9.314;2024-03-25T08:41:03;7.60;99.90
40676;DHT22;26359;48.750;9.314;2024-03-25T08:43:29;7.70;99.90
40676;DHT22;26359;48.750;9.314;2024-03-25T08:45:54;7.80;99.90
40676;DHT22;26359;48.750;9.314;2024-03-25T08:48:20;7.90;99.90
40676;DHT22;26359;48.750;9.314;2024-03-25T08:50:45;8.00;99.90
40676;DHT22;26359;48.750;9.314;2024-03-25T08:53:11;8.20;99.90
40676;DHT22;26359;48.750;9.314;2024-03-25T08:55:36;8.40;99.90
40676;DHT22;26359;48.750;9.314;2024-03-25T08:58:02;8.40;99.90
40676;DHT22;26359;48.750;9.314;2024-03-25T09:00:28;8.70;99.90
40676;DHT22;26359;48.750;9.314;2024-03-25T09:02:54;8.90;99.90
40676;DHT22;26359;48.750;9.314;2024-03-25T09:05:20;8.90;99.90
40676;DHT22;26359;48.750;9.314;2024-03-25T09:07:49;8.90;99.90
40676;DHT22;26359;48.750;9.314;2024-03-25T09:10:26;8.90;99.90
40676;DHT22;26359;48.750;9.314;2024-03-25T09:13:10;9.00;99.90
40676;DHT22;26359;48.750;9.314;2024-03-25T09:15:36;8.80;99.90
40676;DHT22;26359;48.750;9.314;2024-03-25T09:18:02;8.80;99.90
40676;DHT22;26359;48.750;9.314;2024-03-25T09:20:28;8.70;99.90
40676;DHT22;26359;48.750;9.314;2024-03-25T09:22:53;8.70;99.90
40676;DHT22;26359;48.750;9.314;2024-03-25T09:25:19;8.80;99.90
40676;DHT22;26359;48.750;9.314;2024-03-25T09:27:48;8.90;99.90
40676;DHT22;26359;48.750;9.314;2024-03-25T09:30:14;8.90;99.90
40676;DHT22;26359;48.750;9.314;2024-03-25T09:32:43;8.90;99.90
40676;DHT22;26359;48.750;9.314;2024-03-25T09:35:09;9.10;99.90
40676;DHT22;26359;48.750;9.314;2024-03-25T09:37:35;9.20;99.90
40676;DHT22;26359;48.750;9.314;2024-03-25T09:40:01;9.40;99.90
40676;DHT22;26359;48.750;9.314;2024-03-25T09:42:28;9.50;99.90
40676;DHT22;26359;48.750;9.314;2024-03-25T09:44:57;9.50;99.90
40676;DHT22;26359;48.750;9.314;2024-03-25T09:47:23;9.60;99.90
40676;DHT22;26359;48.750;9.314;2024-03-25T09:49:48;9.60;99.90
40676;DHT22;26359;48.750;9.314;2024-03-25T09:52:15;9.70;99.90
40676;DHT22;26359;48.750;9.314;2024-03-25T09:54:41;9.80;99.90
40676;DHT22;26359;48.750;9.314;2024-03-25T09:57:08;9.90;99.90
40676;DHT22;26359;48.750;9.314;2024-03-25T09:59:34;9.80;99.90
40676;DHT22;26359;48.750;9.314;2024-03-25T10:02:01;9.70;99.90
40676;DHT22;26359;48.750;9.314;2024-03-25T10:04:27;9.70;99.90
40676;DHT22;26359;48.750;9.314;2024-03-25T10:06:53;9.70;99.90
40676;DHT22;26359;48.750;9.314;2024-03-25T10:09:19;9.80;99.90
40676;DHT22;26359;48.750;9.314;2024-03-25T10:11:50;10.00;99.90
40676;DHT22;26359;48.750;9.314;2024-03-25T10:14:18;10.30;99.90
40676;DHT22;26359;48.750;9.314;2024-03-25T10:16:48;10.60;99.90
40676;DHT22;26359;48.750;9.314;2024-03-25T10:19:14;11.10;99.90
40676;DHT22;26359;48.750;9.314;2024-03-25T10:21:43;11.30;99.90
40676;DHT22;26359;48.750;9.314;2024-03-25T10:24:09;11.40;99.90
40676;DHT22;26359;48.750;9.314;2024-03-25T10:26:34;11.70;99.90
40676;DHT22;26359;48.750;9.314;2024-03-25T10:29:06;11.90;99.90
40676;DHT22;26359;48.750;9.314;2024-03-25T10:31:33;11.70;99.90
40676;DHT22;26359;48.750;9.314;2024-03-25T10:33:59;11.30;99.90
40676;DHT22;26359;48.750;9.314;2024-03-25T10:36:25;11.20;99.90
40676;DHT22;26359;48.750;9.314;2024-03-25T10:38:56;10.80;99.90
40676;DHT22;26359;48.750;9.314;2024-03-25T10:41:22;11.10;99.90
40676;DHT22;26359;48.750;9.314;2024-03-25T10:43:48;11.70;99.90
40676;DHT22;26359;48.750;9.314;2024-03-25T10:46:19;12.00;99.90
40676;DHT22;26359;48.750;9.314;2024-03-25T10:48:53;12.30;99.90
40676;DHT22;26359;48.750;9.314;2024-03-25T10:51:24;12.50;99.90
40676;DHT22;26359;48.750;9.314;2024-03-25T10:53:51;12.80;99.90
40676;DHT22;26359;48.750;9.314;2024-03-25T10:56:20;13.20;99.90
40676;DHT22;26359;48.750;9.314;2024-03-25T10:58:50;13.80;99.90
40676;DHT22;26359;48.750;9.314;2024-03-25T11:01:19;14.40;99.90
40676;DHT22;26359;48.750;9.314;2024-03-25T11:03:46;14.80;99.90
40676;DHT22;26359;48.750;9.314;2024-03-25T11:06:13;15.10;99.90
40676;DHT22;26359;48.750;9.314;2024-03-25T11:08:39;15.10;99.90
40676;DHT22;26359;48.750;9.314;2024-03-25T11:11:12;14.70;99.90
40676;DHT22;26359;48.750;9.314;2024-03-25T11:13:38;13.90;99.90
40676;DHT22;26359;48.750;9.314;2024-03-25T11:16:03;13.50;99.90
40676;DHT22;26359;48.750;9.314;2024-03-25T11:18:29;13.10;99.90
40676;DHT22;26359;48.750;9.314;2024-03-25T11:21:04;12.90;99.90
40676;DHT22;26359;48.750;9.314;2024-03-25T11:23:41;12.80;99.90
40676;DHT22;26359;48.750;9.314;2024-03-25T11:26:19;13.10;99.90
40676;DHT22;26359;48.750;9.314;2024-03-25T11:28:44;13.60;99.90
40676;DHT22;26359;48.750;9.314;2024-03-25T11:31:11;14.00;99.90
40676;DHT22;26359;48.750;9.314;2024-03-25T11:33:38;14.50;99.90
40676;DHT22;26359;48.750;9.314;2024-03-25T11:36:04;14.50;99.90
40676;DHT22;26359;48.750;9.314;2024-03-25T11:38:30;14.60;99.90
40676;DHT22;26359;48.750;9.314;2024-03-25T11:40:55;14.70;99.90
40676;DHT22;26359;48.750;9.314;2024-03-25T11:43:22;14.60;99.90
40676;DHT22;26359;48.750;9.314;2024-03-25T11:45:48;14.30;99.90
40676;DHT22;26359;48.750;9.314;2024-03-25T11:48:15;14.00;99.90
40676;DHT22;26359;48.750;9.314;2024-03-25T11:50:40;14.00;99.90
40676;DHT22;26359;48.750;9.314;2024-03-25T11:53:07;14.20;99.90
40676;DHT22;26359;48.750;9.314;2024-03-25T11:55:33;14.40;99.90
40676;DHT22;26359;48.750;9.314;2024-03-25T11:57:58;14.40;99.90
40676;DHT22;26359;48.750;9.314;2024-03-25T12:00:24;14.60;99.90
40676;DHT22;26359;48.750;9.314;2024-03-25T12:02:50;15.00;99.90
40676;DHT22;26359;48.750;9.314;2024-03-25T12:05:18;15.30;99.90
40676;DHT22;26359;48.750;9.314;2024-03-25T12:07:43;15.30;99.90
40676;DHT22;26359;48.750;9.314;2024-03-25T12:10:09;15.20;99.90
40676;DHT22;26359;48.750;9.314;2024-03-25T12:12:54;15.30;99.90
40676;DHT22;26359;48.750;9.314;2024-03-25T12:15:20;15.30;99.90
40676;DHT22;26359;48.750;9.314;2024-03-25T12:17:46;15.70;99.90
40676;DHT22;26359;48.750;9.314;2024-03-25T12:20:12;15.80;99.90
40676;DHT22;26359;48.750;9.314;2024-03-25T12:22:38;16.20;99.90
40676;DHT22;26359;48.750;9.314;2024-03-25T12:25:05;16.50;99.90
40676;DHT22;26359;48.750;9.314;2024-03-25T12:27:32;16.50;98.20
40676;DHT22;26359;48.750;9.314;2024-03-25T12:32:35;16.70;95.60
40676;DHT22;26359;48.750;9.314;2024-03-25T12:35:01;16.40;97.00
40676;DHT22;26359;48.750;9.314;2024-03-25T12:37:26;16.40;96.10
40676;DHT22;26359;48.750;9.314;2024-03-25T12:39:52;16.10;96.50
40676;DHT22;26359;48.750;9.314;2024-03-25T12:42:18;16.00;95.50
40676;DHT22;26359;48.750;9.314;2024-03-25T12:44:44;16.20;96.30
40676;DHT22;26359;48.750;9.314;2024-03-25T12:47:10;16.20;95.90
40676;DHT22;26359;48.750;9.314;2024-03-25T12:49:35;16.30;95.20
40676;DHT22;26359;48.750;9.314;2024-03-25T12:52:03;16.30;94.80
40676;DHT22;26359;48.750;9.314;2024-03-25T12:54:30;16.60;94.20
40676;DHT22;26359;48.750;9.314;2024-03-25T12:56:55;16.40;94.50
40676;DHT22;26359;48.750;9.314;2024-03-25T12:59:21;16.30;94.30
40676;DHT22;26359;48.750;9.314;2024-03-25T13:01:46;16.30;93.40
40676;DHT22;26359;48.750;9.314;2024-03-25T13:04:12;16.30;94.30
40676;DHT22;26359;48.750;9.314;2024-03-25T13:06:38;16.10;93.40
40676;DHT22;26359;48.750;9.314;2024-03-25T13:09:03;15.70;93.30
40676;DHT22;26359;48.750;9.314;2024-03-25T13:11:29;15.50;92.70
40676;DHT22;26359;48.750;9.314;2024-03-25T13:13:54;15.10;93.50
40676;DHT22;26359;48.750;9.314;2024-03-25T13:16:21;15.30;95.10
40676;DHT22;26359;48.750;9.314;2024-03-25T13:18:46;15.50;94.90
40676;DHT22;26359;48.750;9.314;2024-03-25T13:21:12;16.00;94.70
40676;DHT22;26359;48.750;9.314;2024-03-25T13:23:37;16.20;93.50
40676;DHT22;26359;48.750;9.314;2024-03-25T13:26:03;16.40;92.50
40676;DHT22;26359;48.750;9.314;2024-03-25T13:28:29;16.40;93.10
40676;DHT22;26359;48.750;9.314;2024-03-25T13:30:54;16.40;92.70
40676;DHT22;26359;48.750;9.314;2024-03-25T13:33:20;16.40;92.40
40676;DHT22;26359;48.750;9.314;2024-03-25T13:35:45;16.00;93.10
40676;DHT22;26359;48.750;9.314;2024-03-25T13:38:11;16.20;93.20
40676;DHT22;26359;48.750;9.314;2024-03-25T13:40:36;16.40;93.70
40676;DHT22;26359;48.750;9.314;2024-03-25T13:43:02;16.70;93.60
40676;DHT22;26359;48.750;9.314;2024-03-25T13:45:27;16.90;92.30
40676;DHT22;26359;48.750;9.314;2024-03-25T13:47:53;17.30;91.40
40676;DHT22;26359;48.750;9.314;2024-03-25T13:50:18;17.60;92.20
40676;DHT22;26359;48.750;9.314;2024-03-25T13:52:47;17.90;91.20
40676;DHT22;26359;48.750;9.314;2024-03-25T13:55:13;18.20;90.50
40676;DHT22;26359;48.750;9.314;2024-03-25T13:57:38;18.40;90.60
40676;DHT22;26359;48.750;9.314;2024-03-25T14:00:04;17.60;89.60
40676;DHT22;26359;48.750;9.314;2024-03-25T14:02:33;18.10;91.00
40676;DHT22;26359;48.750;9.314;2024-03-25T14:05:01;18.40;90.00
40676;DHT22;26359;48.750;9.314;2024-03-25T14:07:27;19.00;88.00
40676;DHT22;26359;48.750;9.314;2024-03-25T14:09:52;19.20;84.90
40676;DHT22;26359;48.750;9.314;2024-03-25T14:12:18;19.10;86.40
40676;DHT22;26359;48.750;9.314;2024-03-25T14:14:44;19.00;86.50
40676;DHT22;26359;48.750;9.314;2024-03-25T14:17:09;19.20;84.60
40676;DHT22;26359;48.750;9.314;2024-03-25T14:19:35;19.20;85.50
40676;DHT22;26359;48.750;9.314;2024-03-25T14:22:00;19.10;83.30
40676;DHT22;26359;48.750;9.314;2024-03-25T14:24:26;19.10;86.80
40676;DHT22;26359;48.750;9.314;2024-03-25T14:26:51;19.70;84.80
40676;DHT22;26359;48.750;9.314;2024-03-25T14:29:17;20.10;82.20
40676;DHT22;26359;48.750;9.314;2024-03-25T14:31:42;20.10;80.70
40676;DHT22;26359;48.750;9.314;2024-03-25T14:34:08;19.80;84.40
40676;DHT22;26359;48.750;9.314;2024-03-25T14:36:33;19.90;82.60
40676;DHT22;26359;48.750;9.314;2024-03-25T14:39:01;19.90;87.40
40676;DHT22;26359;48.750;9.314;2024-03-25T14:41:26;20.00;79.90
40676;DHT22;26359;48.750;9.314;2024-03-25T14:43:52;19.70;80.60
40676;DHT22;26359;48.750;9.314;2024-03-25T14:46:17;19.90;90.40
40676;DHT22;26359;48.750;9.314;2024-03-25T14:48:43;19.80;80.40
40676;DHT22;26359;48.750;9.314;2024-03-25T14:51:09;19.40;79.70
40676;DHT22;26359;48.750;9.314;2024-03-25T14:53:34;18.70;80.30
40676;DHT22;26359;48.750;9.314;2024-03-25T14:56:00;18.90;82.90
40676;DHT22;26359;48.750;9.314;2024-03-25T14:58:26;18.80;79.20
40676;DHT22;26359;48.750;9.314;2024-03-25T15:00:51;18.60;83.40
40676;DHT22;26359;48.750;9.314;2024-03-25T15:03:17;18.40;81.50
40676;DHT22;26359;48.750;9.314;2024-03-25T15:05:42;18.40;81.70
40676;DHT22;26359;48.750;9.314;2024-03-25T15:08:08;18.20;83.70
40676;DHT22;26359;48.750;9.314;2024-03-25T15:10:34;18.60;84.10
40676;DHT22;26359;48.750;9.314;2024-03-25T15:12:59;18.50;82.10
40676;DHT22;26359;48.750;9.314;2024-03-25T15:15:25;18.00;80.00
40676;DHT22;26359;48.750;9.314;2024-03-25T15:17:51;17.90;81.20
40676;DHT22;26359;48.750;9.314;2024-03-25T15:20:16;18.00;83.20
40676;DHT22;26359;48.750;9.314;2024-03-25T15:22:42;17.90;84.20
40676;DHT22;26359;48.750;9.314;2024-03-25T15:25:09;17.80;82.30
40676;DHT22;26359;48.750;9.314;2024-03-25T15:27:36;17.50;81.10
40676;DHT22;26359;48.750;9.314;2024-03-25T15:30:03;17.10;83.70
40676;DHT22;26359;48.750;9.314;2024-03-25T15:32:29;16.80;85.20
40676;DHT22;26359;48.750;9.314;2024-03-25T15:34:54;16.60;84.50
40676;DHT22;26359;48.750;9.314;2024-03-25T15:37:20;16.80;85.20
40676;DHT22;26359;48.750;9.314;2024-03-25T15:39:45;16.70;85.40
40676;DHT22;26359;48.750;9.314;2024-03-25T15:42:11;16.50;84.60
40676;DHT22;26359;48.750;9.314;2024-03-25T15:44:36;16.40;83.80
40676;DHT22;26359;48.750;9.314;2024-03-25T15:47:02;16.20;83.10
40676;DHT22;26359;48.750;9.314;2024-03-25T15:49:27;16.00;83.30
40676;DHT22;26359;48.750;9.314;2024-03-25T15:51:53;16.00;81.80
40676;DHT22;26359;48.750;9.314;2024-03-25T15:54:18;15.90;80.30